createdAt,value
2023-04-18T00:03:57.100Z,23.30
2023-04-18T00:09:00.864Z,24.60
2023-04-18T00:14:04.750Z,23.90
2023-04-18T00:19:09.401Z,20.30
2023-04-18T00:24:13.503Z,17.60
2023-04-18T00:29:17.377Z,15.10
2023-04-18T00:34:21.167Z,19.00
2023-04-18T00:39:24.859Z,17.50
2023-04-18T00:59:12.253Z,18.50
2023-04-18T01:09:45.718Z,16.70
2023-04-18T01:15:15.058Z,18.50
2023-04-18T01:20:49.682Z,20.00
2023-04-18T01:25:53.390Z,20.20
2023-04-18T01:34:55.094Z,18.60
2023-04-18T01:39:58.790Z,15.90
2023-04-18T01:59:32.576Z,19.90
2023-04-18T02:23:53.634Z,18.00
2023-04-18T02:29:48.393Z,18.40
2023-04-18T02:34:52.024Z,14.30
2023-04-18T02:39:55.917Z,15.50
2023-04-18T02:44:59.615Z,12.50
2023-04-18T02:50:04.620Z,16.90
2023-04-18T02:55:08.706Z,13.60
2023-04-18T03:00:37.633Z,12.10
2023-04-18T03:05:41.457Z,14.50
2023-04-18T03:10:45.185Z,19.80
2023-04-18T03:24:27.276Z,16.60
2023-04-18T03:29:31.475Z,18.60
2023-04-18T03:53:44.423Z,13.00
2023-04-18T03:59:38.938Z,21.70
2023-04-18T04:04:58.231Z,17.30
2023-04-18T04:10:02.302Z,18.00
2023-04-18T04:15:07.045Z,18.80
2023-04-18T04:20:11.661Z,16.70
2023-04-18T04:25:17.693Z,23.30
2023-04-18T04:30:22.162Z,16.00
2023-04-18T04:35:26.872Z,14.70
2023-04-18T04:40:30.887Z,16.30
2023-04-18T04:45:35.048Z,15.80
2023-04-18T04:50:42.726Z,19.60
2023-04-18T04:55:48.499Z,20.30
2023-04-18T05:00:53.405Z,26.10
2023-04-18T05:13:18.734Z,21.90
2023-04-18T05:18:22.720Z,22.60
2023-04-18T05:30:48.394Z,21.20
2023-04-18T05:36:32.732Z,25.00
2023-04-18T05:41:36.667Z,16.60
2023-04-18T05:46:40.795Z,23.80
2023-04-18T05:53:10.567Z,22.10
2023-04-18T05:58:26.658Z,23.40
2023-04-18T06:18:39.451Z,18.30
2023-04-18T06:23:49.470Z,18.80
2023-04-18T06:29:18.583Z,19.30
2023-04-18T06:34:22.105Z,25.40
2023-04-18T06:41:07.738Z,22.30
2023-04-18T06:54:11.873Z,38.00
2023-04-18T07:01:12.874Z,33.40
2023-04-18T07:06:17.641Z,23.80
2023-04-18T07:20:13.062Z,22.10
2023-04-18T07:25:18.703Z,22.20
2023-04-18T07:30:22.630Z,18.30
2023-04-18T07:36:16.432Z,15.00
2023-04-18T07:48:28.683Z,21.50
2023-04-18T07:54:25.667Z,21.00
2023-04-18T08:00:20.589Z,19.10
2023-04-18T08:06:55.953Z,19.10
2023-04-18T08:13:18.342Z,18.60
2023-04-18T08:26:51.006Z,29.10
2023-04-18T08:32:24.632Z,19.00
2023-04-18T08:44:38.361Z,40.20
2023-04-18T08:49:44.260Z,30.80
2023-04-18T08:54:49.569Z,52.30
2023-04-18T08:59:54.480Z,27.60
2023-04-18T09:04:58.256Z,13.90
2023-04-18T09:10:34.869Z,36.50
2023-04-18T09:15:38.868Z,38.90
2023-04-18T09:20:43.160Z,30.20
2023-04-18T09:26:42.539Z,18.60
2023-04-18T09:47:56.199Z,10.70
2023-04-18T09:53:26.218Z,10.50
2023-04-18T09:58:34.786Z,7.50
2023-04-18T10:11:11.124Z,7.60
2023-04-18T10:16:17.256Z,7.30
2023-04-18T10:22:12.845Z,6.80
2023-04-18T10:28:39.124Z,8.00
2023-04-18T10:40:51.397Z,7.60
2023-04-18T10:46:31.608Z,7.90
2023-04-18T10:51:36.537Z,7.20
2023-04-18T10:56:40.956Z,7.90
2023-04-18T11:02:30.658Z,6.70
2023-04-18T11:15:40.539Z,5.20
2023-04-18T11:28:07.014Z,6.70
2023-04-18T11:34:33.328Z,6.60
2023-04-18T11:40:59.203Z,6.40
2023-04-18T11:46:03.114Z,29.70
2023-04-18T11:51:57.989Z,11.60
2023-04-18T11:57:02.983Z,10.60
2023-04-18T12:09:27.156Z,7.20
2023-04-18T12:21:20.349Z,8.60
2023-04-18T12:27:54.009Z,7.60
2023-04-18T12:33:22.848Z,8.80
2023-04-18T12:38:27.445Z,14.70
2023-04-18T12:44:48.516Z,9.80
2023-04-18T12:49:52.976Z,7.70
2023-04-18T12:55:26.366Z,5.30
2023-04-18T13:00:34.165Z,7.00
2023-04-18T13:05:40.795Z,18.20
2023-04-18T13:10:46.070Z,7.30
2023-04-18T13:15:51.937Z,6.90
2023-04-18T13:20:56.949Z,7.70
2023-04-18T13:26:02.695Z,16.90
2023-04-18T13:31:07.509Z,11.10
2023-04-18T13:36:11.939Z,20.70
2023-04-18T13:41:21.017Z,46.00
2023-04-18T13:46:26.925Z,19.10
2023-04-18T13:52:21.497Z,15.30
2023-04-18T13:57:52.464Z,12.60
2023-04-18T14:02:58.152Z,15.60
2023-04-18T14:08:07.041Z,16.00
2023-04-18T14:13:47.130Z,16.50
2023-04-18T14:19:42.043Z,22.50
2023-04-18T14:25:47.629Z,23.60
2023-04-18T14:30:52.778Z,14.20
2023-04-18T14:35:57.119Z,28.80
2023-04-18T14:41:02.273Z,17.20
2023-04-18T14:54:56.678Z,19.40
2023-04-18T15:12:01.582Z,18.30
2023-04-18T15:24:33.954Z,16.30
2023-04-18T15:45:30.614Z,21.90
2023-04-18T15:50:34.451Z,25.20
2023-04-18T16:03:47.396Z,25.00
2023-04-18T16:08:51.449Z,20.40
2023-04-18T16:13:56.524Z,18.60
2023-04-18T16:19:01.784Z,22.50
2023-04-18T16:24:06.478Z,33.30
2023-04-18T16:29:12.420Z,17.00
2023-04-18T16:34:18.132Z,13.60
2023-04-18T16:39:24.261Z,14.40
2023-04-18T16:44:31.170Z,18.80
2023-04-18T16:49:36.555Z,18.20
2023-04-18T16:54:41.908Z,15.20
2023-04-18T16:59:46.202Z,20.00
2023-04-18T17:12:18.322Z,18.40
2023-04-18T17:17:24.132Z,19.80
2023-04-18T17:22:28.274Z,15.20
2023-04-18T17:27:35.033Z,21.60
2023-04-18T17:32:46.322Z,20.60
2023-04-18T17:37:53.232Z,17.90
2023-04-18T17:43:15.317Z,17.50
2023-04-18T17:48:21.738Z,19.20
2023-04-18T17:53:27.567Z,15.20
2023-04-18T17:58:32.418Z,18.30
2023-04-18T18:03:39.533Z,16.00
2023-04-18T18:09:13.288Z,23.00
2023-04-18T18:14:17.925Z,46.50
2023-04-18T18:34:22.446Z,24.90
2023-04-18T18:39:53.016Z,29.50
2023-04-18T18:44:57.008Z,22.90
2023-04-18T18:51:28.543Z,17.90
2023-04-18T18:56:32.898Z,22.80
2023-04-18T19:10:06.793Z,41.40
2023-04-18T19:15:12.141Z,42.70
2023-04-18T19:21:06.215Z,22.80
2023-04-18T19:27:31.516Z,20.80
2023-04-18T19:40:28.636Z,20.10
2023-04-18T20:00:55.757Z,14.20
2023-04-18T20:13:03.614Z,11.20
2023-04-18T20:19:47.863Z,10.20
2023-04-18T20:42:19.661Z,8.70
2023-04-18T20:48:14.054Z,10.70
2023-04-18T20:54:02.662Z,13.30
2023-04-18T20:59:08.845Z,13.60
2023-04-18T21:12:28.033Z,9.80
2023-04-18T21:26:01.926Z,8.70
2023-04-18T21:31:06.209Z,8.60
2023-04-18T21:43:28.480Z,7.10
2023-04-18T21:48:32.199Z,5.80
2023-04-18T21:55:12.914Z,7.10
2023-04-18T22:00:17.451Z,7.60
2023-04-18T22:05:21.593Z,7.30
2023-04-18T22:10:25.806Z,7.40
2023-04-18T22:15:30.507Z,10.40
2023-04-18T22:21:00.147Z,9.20
2023-04-18T22:31:07.955Z,9.60
2023-04-18T22:36:11.810Z,8.80
2023-04-18T22:41:15.657Z,5.20
2023-04-18T22:46:19.799Z,6.60
2023-04-18T22:51:50.259Z,5.90
2023-04-18T22:57:50.416Z,5.30
2023-04-18T23:03:19.724Z,4.30
2023-04-18T23:09:03.700Z,4.40
2023-04-18T23:29:08.435Z,4.90
2023-04-18T23:51:55.869Z,5.30
2023-04-18T23:56:59.831Z,5.00
